San Jose Del Cabo, BCS, Mexico
Current Conditions -  °F | °C
As of 8:41 AM on Saturday 25 Oct 2014 (Local Time) from MMSD Reporting Station
Clear Clear  
Wind Chill: 81°   Ceiling: Unl
Heat Index: 83°   Visibility: 15mi
Dew Point: 68°   Wind: 0mph
Humidity: 65%   Direction: NA
Pressure: 30"   Gusts: NA
Location:  23.07°N, 109.68°W
Report Text: MMSD 251441Z 00000KT 15SM SKC 27/20 A3000
Loading
Personal Weather Stations






























Interactive Weather Map New forecast layout! Learn more

10-Day Weather Forecast

Advertisements
Track Severe Weather on mobile